LUKK/KIV METAR and TAF weather

Enter ICAO airport designator
Station Type Date Time Source
LUKK METAR 2019/10/23 13:30 UTC NOAA

LUKK 231330Z VRB01KT 9999 OVC008 13/11 Q1023 R26/CLRD// NOSIG


Station Type Date Time Source
LUKK Decoded METAR 2019/10/23 13:30 UTC NOAA

Chisinau International Airport, Moldova (LUKK) 46-55-40N 028-55-51E
Oct 23, 2019 - 09:30 AM EDT / 2019.10.23 1330 UTC
Wind: Variable at 1 MPH (1 KT):0
Visibility: greater than 7 mile(s):0
Sky conditions: overcast
Temperature: 55 F (13 C)
Dew Point: 51 F (11 C)
Relative Humidity: 87%
Pressure (altimeter): 30.21 in. Hg (1023 hPa)
ob: LUKK 231330Z VRB01KT 9999 OVC008 13/11 Q1023 R26/CLRD// NOSIG
cycle: 13

Station Type Date Time Source
LUKK TAF 2019/10/23 12:21 UTC NOAA

TAF TAF LUKK 231120Z 2312/2412 19004KT 9999 OVC008
TEMPO 2316/2318 OVC003
BECMG 2318/2320 4100 BR OVC002
BECMG 2322/2324 1200
TEMPO 2400/2406 0600 FG VV///
BECMG 2407/2409 9999 NSW OVC005

Example: see airport list